sensor_id;sensor_type;location;lat;lon;timestamp;P1;durP1;ratioP1;P2;durP2;ratioP2
46447;SDS011;32145;50.390;30.778;2023-05-07T00:02:31;8.80;;;3.40;;
46447;SDS011;32145;50.390;30.778;2023-05-07T00:05:27;8.25;;;3.35;;
46447;SDS011;32145;50.390;30.778;2023-05-07T00:08:23;8.82;;;3.22;;
46447;SDS011;32145;50.390;30.778;2023-05-07T00:11:20;6.13;;;3.05;;
46447;SDS011;32145;50.390;30.778;2023-05-07T00:14:16;7.20;;;3.22;;
46447;SDS011;32145;50.390;30.778;2023-05-07T00:17:14;9.43;;;3.33;;
46447;SDS011;32145;50.390;30.778;2023-05-07T00:20:10;7.70;;;3.17;;
46447;SDS011;32145;50.390;30.778;2023-05-07T00:23:05;7.72;;;3.10;;
46447;SDS011;32145;50.390;30.778;2023-05-07T00:25:59;5.65;;;2.97;;
46447;SDS011;32145;50.390;30.778;2023-05-07T00:28:54;7.68;;;3.28;;
46447;SDS011;32145;50.390;30.778;2023-05-07T00:31:48;6.35;;;3.15;;
46447;SDS011;32145;50.390;30.778;2023-05-07T00:34:46;8.05;;;2.60;;
46447;SDS011;32145;50.390;30.778;2023-05-07T00:37:42;5.57;;;3.10;;
46447;SDS011;32145;50.390;30.778;2023-05-07T00:40:38;5.50;;;3.00;;
46447;SDS011;32145;50.390;30.778;2023-05-07T00:43:35;7.18;;;2.83;;
46447;SDS011;32145;50.390;30.778;2023-05-07T00:46:31;4.10;;;2.60;;
46447;SDS011;32145;50.390;30.778;2023-05-07T00:49:29;5.38;;;3.00;;
46447;SDS011;32145;50.390;30.778;2023-05-07T00:52:32;5.50;;;2.88;;
46447;SDS011;32145;50.390;30.778;2023-05-07T00:55:26;5.50;;;2.42;;
46447;SDS011;32145;50.390;30.778;2023-05-07T00:58:20;5.65;;;2.45;;
46447;SDS011;32145;50.390;30.778;2023-05-07T01:01:15;4.70;;;2.17;;
46447;SDS011;32145;50.390;30.778;2023-05-07T01:04:09;7.60;;;2.40;;
46447;SDS011;32145;50.390;30.778;2023-05-07T01:07:05;7.55;;;2.72;;
46447;SDS011;32145;50.390;30.778;2023-05-07T01:10:03;6.55;;;2.40;;
46447;SDS011;32145;50.390;30.778;2023-05-07T01:13:01;4.25;;;2.45;;
46447;SDS011;32145;50.390;30.778;2023-05-07T01:15:57;6.55;;;2.42;;
46447;SDS011;32145;50.390;30.778;2023-05-07T01:18:54;5.53;;;2.45;;
46447;SDS011;32145;50.390;30.778;2023-05-07T01:21:50;4.05;;;2.25;;
46447;SDS011;32145;50.390;30.778;2023-05-07T01:24:48;7.55;;;2.42;;
46447;SDS011;32145;50.390;30.778;2023-05-07T01:27:45;4.47;;;2.30;;
46447;SDS011;32145;50.390;30.778;2023-05-07T01:30:41;5.88;;;2.47;;
46447;SDS011;32145;50.390;30.778;2023-05-07T01:33:38;4.38;;;2.30;;
46447;SDS011;32145;50.390;30.778;2023-05-07T01:36:35;5.78;;;2.70;;
46447;SDS011;32145;50.390;30.778;2023-05-07T01:39:32;4.82;;;2.28;;
46447;SDS011;32145;50.390;30.778;2023-05-07T01:42:28;5.60;;;2.42;;
46447;SDS011;32145;50.390;30.778;2023-05-07T01:45:23;4.85;;;2.40;;
46447;SDS011;32145;50.390;30.778;2023-05-07T01:48:18;5.82;;;2.53;;
46447;SDS011;32145;50.390;30.778;2023-05-07T01:51:12;4.60;;;2.58;;
46447;SDS011;32145;50.390;30.778;2023-05-07T01:54:07;4.70;;;2.35;;
46447;SDS011;32145;50.390;30.778;2023-05-07T01:57:01;5.00;;;2.40;;
46447;SDS011;32145;50.390;30.778;2023-05-07T01:59:57;7.10;;;2.58;;
46447;SDS011;32145;50.390;30.778;2023-05-07T02:02:51;5.82;;;2.30;;
46447;SDS011;32145;50.390;30.778;2023-05-07T02:05:45;4.10;;;2.22;;
46447;SDS011;32145;50.390;30.778;2023-05-07T02:08:39;5.32;;;2.20;;
46447;SDS011;32145;50.390;30.778;2023-05-07T02:11:36;6.82;;;2.50;;
46447;SDS011;32145;50.390;30.778;2023-05-07T02:14:32;4.82;;;2.08;;
46447;SDS011;32145;50.390;30.778;2023-05-07T02:17:30;5.38;;;2.70;;
46447;SDS011;32145;50.390;30.778;2023-05-07T02:20:24;4.97;;;2.50;;
46447;SDS011;32145;50.390;30.778;2023-05-07T02:23:18;4.75;;;2.30;;
46447;SDS011;32145;50.390;30.778;2023-05-07T02:26:13;4.20;;;2.00;;
46447;SDS011;32145;50.390;30.778;2023-05-07T02:29:07;4.47;;;2.20;;
46447;SDS011;32145;50.390;30.778;2023-05-07T02:32:01;6.05;;;2.30;;
46447;SDS011;32145;50.390;30.778;2023-05-07T02:34:57;3.20;;;1.90;;
46447;SDS011;32145;50.390;30.778;2023-05-07T02:37:51;4.35;;;2.20;;
46447;SDS011;32145;50.390;30.778;2023-05-07T02:40:45;4.30;;;2.38;;
46447;SDS011;32145;50.390;30.778;2023-05-07T02:43:40;5.47;;;2.17;;
46447;SDS011;32145;50.390;30.778;2023-05-07T02:46:36;4.32;;;2.28;;
46447;SDS011;32145;50.390;30.778;2023-05-07T02:49:32;4.13;;;2.15;;
46447;SDS011;32145;50.390;30.778;2023-05-07T02:52:30;6.22;;;2.22;;
46447;SDS011;32145;50.390;30.778;2023-05-07T02:55:26;5.90;;;2.72;;
46447;SDS011;32145;50.390;30.778;2023-05-07T02:58:23;4.95;;;2.35;;
46447;SDS011;32145;50.390;30.778;2023-05-07T03:01:17;4.15;;;2.10;;
46447;SDS011;32145;50.390;30.778;2023-05-07T03:04:12;4.65;;;2.30;;
46447;SDS011;32145;50.390;30.778;2023-05-07T03:07:06;6.15;;;2.45;;
46447;SDS011;32145;50.390;30.778;2023-05-07T03:10:02;4.85;;;2.30;;
46447;SDS011;32145;50.390;30.778;2023-05-07T03:12:58;5.22;;;2.30;;
46447;SDS011;32145;50.390;30.778;2023-05-07T03:15:54;4.65;;;2.10;;
46447;SDS011;32145;50.390;30.778;2023-05-07T03:18:51;6.28;;;2.30;;
46447;SDS011;32145;50.390;30.778;2023-05-07T03:21:47;3.70;;;1.98;;
46447;SDS011;32145;50.390;30.778;2023-05-07T03:24:43;5.05;;;2.20;;
46447;SDS011;32145;50.390;30.778;2023-05-07T03:27:39;5.80;;;2.15;;
46447;SDS011;32145;50.390;30.778;2023-05-07T03:30:33;3.65;;;2.08;;
46447;SDS011;32145;50.390;30.778;2023-05-07T03:33:28;4.10;;;2.10;;
46447;SDS011;32145;50.390;30.778;2023-05-07T03:36:24;4.45;;;2.20;;
46447;SDS011;32145;50.390;30.778;2023-05-07T03:39:20;3.95;;;2.30;;
46447;SDS011;32145;50.390;30.778;2023-05-07T03:42:17;4.72;;;2.30;;
46447;SDS011;32145;50.390;30.778;2023-05-07T03:45:15;4.25;;;2.20;;
46447;SDS011;32145;50.390;30.778;2023-05-07T03:48:09;4.35;;;2.30;;
46447;SDS011;32145;50.390;30.778;2023-05-07T03:51:03;3.50;;;2.00;;
46447;SDS011;32145;50.390;30.778;2023-05-07T03:53:57;4.35;;;2.08;;
46447;SDS011;32145;50.390;30.778;2023-05-07T03:56:52;4.70;;;2.22;;
46447;SDS011;32145;50.390;30.778;2023-05-07T03:59:48;4.93;;;2.22;;
46447;SDS011;32145;50.390;30.778;2023-05-07T04:02:46;3.38;;;2.15;;
46447;SDS011;32145;50.390;30.778;2023-05-07T04:05:40;6.35;;;2.55;;
46447;SDS011;32145;50.390;30.778;2023-05-07T04:08:34;5.18;;;2.30;;
46447;SDS011;32145;50.390;30.778;2023-05-07T04:11:28;7.22;;;2.40;;
46447;SDS011;32145;50.390;30.778;2023-05-07T04:14:23;4.20;;;2.40;;
46447;SDS011;32145;50.390;30.778;2023-05-07T04:17:17;5.47;;;2.60;;
46447;SDS011;32145;50.390;30.778;2023-05-07T04:20:14;5.78;;;2.50;;
46447;SDS011;32145;50.390;30.778;2023-05-07T04:23:09;5.78;;;2.67;;
46447;SDS011;32145;50.390;30.778;2023-05-07T04:26:04;6.47;;;2.70;;
46447;SDS011;32145;50.390;30.778;2023-05-07T04:28:58;4.30;;;2.33;;
46447;SDS011;32145;50.390;30.778;2023-05-07T04:31:52;4.60;;;2.60;;
46447;SDS011;32145;50.390;30.778;2023-05-07T04:34:47;6.75;;;2.67;;
46447;SDS011;32145;50.390;30.778;2023-05-07T04:37:42;8.05;;;2.95;;
46447;SDS011;32145;50.390;30.778;2023-05-07T04:40:38;5.82;;;2.80;;
46447;SDS011;32145;50.390;30.778;2023-05-07T04:43:35;6.78;;;2.80;;
46447;SDS011;32145;50.390;30.778;2023-05-07T04:46:31;5.88;;;3.00;;
46447;SDS011;32145;50.390;30.778;2023-05-07T04:49:28;5.85;;;3.10;;
46447;SDS011;32145;50.390;30.778;2023-05-07T04:52:24;8.07;;;2.90;;
46447;SDS011;32145;50.390;30.778;2023-05-07T04:55:22;5.55;;;3.10;;
46447;SDS011;32145;50.390;30.778;2023-05-07T04:58:18;10.38;;;2.60;;
46447;SDS011;32145;50.390;30.778;2023-05-07T05:01:14;6.32;;;2.65;;
46447;SDS011;32145;50.390;30.778;2023-05-07T05:04:10;5.90;;;2.75;;
46447;SDS011;32145;50.390;30.778;2023-05-07T05:07:07;5.55;;;2.72;;
46447;SDS011;32145;50.390;30.778;2023-05-07T05:10:04;6.72;;;2.60;;
46447;SDS011;32145;50.390;30.778;2023-05-07T05:13:03;6.40;;;2.90;;
46447;SDS011;32145;50.390;30.778;2023-05-07T05:15:59;6.63;;;2.80;;
46447;SDS011;32145;50.390;30.778;2023-05-07T05:18:55;4.88;;;2.58;;
46447;SDS011;32145;50.390;30.778;2023-05-07T05:21:52;5.22;;;2.55;;
46447;SDS011;32145;50.390;30.778;2023-05-07T05:24:48;9.75;;;2.83;;
46447;SDS011;32145;50.390;30.778;2023-05-07T05:27:44;5.05;;;2.88;;
46447;SDS011;32145;50.390;30.778;2023-05-07T05:30:40;4.63;;;2.70;;
46447;SDS011;32145;50.390;30.778;2023-05-07T05:33:34;6.50;;;2.85;;
46447;SDS011;32145;50.390;30.778;2023-05-07T05:36:29;8.82;;;2.75;;
46447;SDS011;32145;50.390;30.778;2023-05-07T05:39:23;5.15;;;2.63;;
46447;SDS011;32145;50.390;30.778;2023-05-07T05:42:18;6.75;;;2.78;;
46447;SDS011;32145;50.390;30.778;2023-05-07T05:45:12;7.78;;;2.63;;
46447;SDS011;32145;50.390;30.778;2023-05-07T05:48:09;5.55;;;2.85;;
46447;SDS011;32145;50.390;30.778;2023-05-07T05:51:05;5.30;;;2.75;;
46447;SDS011;32145;50.390;30.778;2023-05-07T05:54:02;6.53;;;2.88;;
46447;SDS011;32145;50.390;30.778;2023-05-07T05:56:58;27.20;;;4.15;;
46447;SDS011;32145;50.390;30.778;2023-05-07T05:59:54;5.97;;;2.50;;
46447;SDS011;32145;50.390;30.778;2023-05-07T06:02:49;3.92;;;2.30;;
46447;SDS011;32145;50.390;30.778;2023-05-07T06:05:45;4.10;;;2.38;;
46447;SDS011;32145;50.390;30.778;2023-05-07T06:08:39;5.15;;;2.50;;
46447;SDS011;32145;50.390;30.778;2023-05-07T06:11:34;5.90;;;2.30;;
46447;SDS011;32145;50.390;30.778;2023-05-07T06:14:30;5.93;;;2.47;;
46447;SDS011;32145;50.390;30.778;2023-05-07T06:17:26;8.05;;;2.63;;
46447;SDS011;32145;50.390;30.778;2023-05-07T06:20:23;4.45;;;2.70;;
46447;SDS011;32145;50.390;30.778;2023-05-07T06:23:20;5.57;;;2.20;;
46447;SDS011;32145;50.390;30.778;2023-05-07T06:26:17;5.63;;;2.20;;
46447;SDS011;32145;50.390;30.778;2023-05-07T06:29:13;4.03;;;2.10;;
46447;SDS011;32145;50.390;30.778;2023-05-07T06:32:11;6.05;;;2.25;;
46447;SDS011;32145;50.390;30.778;2023-05-07T06:35:09;3.90;;;2.17;;
46447;SDS011;32145;50.390;30.778;2023-05-07T06:38:05;4.80;;;2.50;;
46447;SDS011;32145;50.390;30.778;2023-05-07T06:41:03;4.53;;;2.60;;
46447;SDS011;32145;50.390;30.778;2023-05-07T06:43:59;2.75;;;1.60;;
46447;SDS011;32145;50.390;30.778;2023-05-07T06:46:56;4.65;;;1.83;;
46447;SDS011;32145;50.390;30.778;2023-05-07T06:49:50;4.45;;;2.00;;
46447;SDS011;32145;50.390;30.778;2023-05-07T06:52:44;6.25;;;1.63;;
46447;SDS011;32145;50.390;30.778;2023-05-07T06:55:39;2.97;;;1.67;;
46447;SDS011;32145;50.390;30.778;2023-05-07T06:58:35;3.95;;;1.70;;
46447;SDS011;32145;50.390;30.778;2023-05-07T07:01:29;5.75;;;2.05;;
46447;SDS011;32145;50.390;30.778;2023-05-07T07:04:23;3.13;;;1.60;;
46447;SDS011;32145;50.390;30.778;2023-05-07T07:07:19;3.40;;;1.45;;
46447;SDS011;32145;50.390;30.778;2023-05-07T07:10:16;3.85;;;1.58;;
46447;SDS011;32145;50.390;30.778;2023-05-07T07:13:10;3.35;;;1.38;;
46447;SDS011;32145;50.390;30.778;2023-05-07T07:16:06;4.18;;;1.45;;
46447;SDS011;32145;50.390;30.778;2023-05-07T07:19:02;7.22;;;1.30;;
46447;SDS011;32145;50.390;30.778;2023-05-07T07:21:59;4.38;;;1.70;;
46447;SDS011;32145;50.390;30.778;2023-05-07T07:24:55;7.10;;;1.60;;
46447;SDS011;32145;50.390;30.778;2023-05-07T07:27:51;6.68;;;1.60;;
46447;SDS011;32145;50.390;30.778;2023-05-07T07:30:47;2.53;;;1.20;;
46447;SDS011;32145;50.390;30.778;2023-05-07T07:33:45;5.03;;;1.50;;
46447;SDS011;32145;50.390;30.778;2023-05-07T07:36:41;4.60;;;1.40;;
46447;SDS011;32145;50.390;30.778;2023-05-07T07:39:37;2.20;;;1.40;;
46447;SDS011;32145;50.390;30.778;2023-05-07T07:42:34;3.35;;;1.30;;
46447;SDS011;32145;50.390;30.778;2023-05-07T07:45:30;2.35;;;1.40;;
46447;SDS011;32145;50.390;30.778;2023-05-07T07:48:27;3.42;;;1.20;;
46447;SDS011;32145;50.390;30.778;2023-05-07T07:51:24;3.45;;;1.65;;
46447;SDS011;32145;50.390;30.778;2023-05-07T07:54:21;4.20;;;1.40;;
46447;SDS011;32145;50.390;30.778;2023-05-07T07:57:17;5.47;;;1.52;;
46447;SDS011;32145;50.390;30.778;2023-05-07T08:00:12;2.45;;;1.30;;
46447;SDS011;32145;50.390;30.778;2023-05-07T08:03:08;3.95;;;1.38;;
46447;SDS011;32145;50.390;30.778;2023-05-07T08:06:03;2.95;;;1.48;;
46447;SDS011;32145;50.390;30.778;2023-05-07T08:08:59;4.38;;;1.73;;
46447;SDS011;32145;50.390;30.778;2023-05-07T08:11:53;3.85;;;1.50;;
46447;SDS011;32145;50.390;30.778;2023-05-07T08:14:47;4.07;;;1.63;;
46447;SDS011;32145;50.390;30.778;2023-05-07T08:17:42;2.33;;;1.40;;
46447;SDS011;32145;50.390;30.778;2023-05-07T08:20:36;3.38;;;1.25;;
46447;SDS011;32145;50.390;30.778;2023-05-07T08:23:31;3.13;;;1.58;;
46447;SDS011;32145;50.390;30.778;2023-05-07T08:26:26;3.22;;;1.27;;
46447;SDS011;32145;50.390;30.778;2023-05-07T08:29:21;2.78;;;1.20;;
46447;SDS011;32145;50.390;30.778;2023-05-07T08:32:15;6.13;;;1.60;;
46447;SDS011;32145;50.390;30.778;2023-05-07T08:35:09;5.72;;;1.50;;
46447;SDS011;32145;50.390;30.778;2023-05-07T08:38:04;5.45;;;1.30;;
46447;SDS011;32145;50.390;30.778;2023-05-07T08:40:58;5.85;;;1.42;;
46447;SDS011;32145;50.390;30.778;2023-05-07T08:43:54;3.80;;;1.20;;
46447;SDS011;32145;50.390;30.778;2023-05-07T08:46:52;3.88;;;1.50;;
46447;SDS011;32145;50.390;30.778;2023-05-07T08:49:49;2.13;;;1.20;;
46447;SDS011;32145;50.390;30.778;2023-05-07T08:52:43;4.85;;;1.50;;
46447;SDS011;32145;50.390;30.778;2023-05-07T08:55:38;2.53;;;1.38;;
46447;SDS011;32145;50.390;30.778;2023-05-07T08:58:32;3.83;;;1.20;;
46447;SDS011;32145;50.390;30.778;2023-05-07T09:01:28;3.83;;;1.30;;
46447;SDS011;32145;50.390;30.778;2023-05-07T09:04:22;4.80;;;1.55;;
46447;SDS011;32145;50.390;30.778;2023-05-07T09:07:16;3.65;;;1.20;;
46447;SDS011;32145;50.390;30.778;2023-05-07T09:10:11;4.68;;;1.35;;
46447;SDS011;32145;50.390;30.778;2023-05-07T09:13:05;2.35;;;1.35;;
46447;SDS011;32145;50.390;30.778;2023-05-07T09:16:11;3.45;;;1.23;;
46447;SDS011;32145;50.390;30.778;2023-05-07T09:19:10;2.85;;;1.00;;
46447;SDS011;32145;50.390;30.778;2023-05-07T09:22:06;4.70;;;1.23;;
46447;SDS011;32145;50.390;30.778;2023-05-07T09:25:03;3.05;;;1.17;;
46447;SDS011;32145;50.390;30.778;2023-05-07T09:28:00;2.05;;;1.13;;
46447;SDS011;32145;50.390;30.778;2023-05-07T09:30:57;3.53;;;1.23;;
46447;SDS011;32145;50.390;30.778;2023-05-07T09:33:52;2.70;;;1.30;;
46447;SDS011;32145;50.390;30.778;2023-05-07T09:36:48;3.25;;;1.35;;
46447;SDS011;32145;50.390;30.778;2023-05-07T09:39:42;2.58;;;1.30;;
46447;SDS011;32145;50.390;30.778;2023-05-07T09:42:37;1.70;;;1.10;;
46447;SDS011;32145;50.390;30.778;2023-05-07T09:45:32;5.35;;;1.20;;
46447;SDS011;32145;50.390;30.778;2023-05-07T09:48:26;2.10;;;1.30;;
46447;SDS011;32145;50.390;30.778;2023-05-07T09:51:24;2.42;;;1.33;;
46447;SDS011;32145;50.390;30.778;2023-05-07T09:54:25;1.60;;;1.08;;
46447;SDS011;32145;50.390;30.778;2023-05-07T09:57:22;5.43;;;1.33;;
46447;SDS011;32145;50.390;30.778;2023-05-07T10:00:20;2.47;;;1.30;;
46447;SDS011;32145;50.390;30.778;2023-05-07T10:03:17;2.15;;;1.25;;
46447;SDS011;32145;50.390;30.778;2023-05-07T10:06:15;3.10;;;1.40;;
46447;SDS011;32145;50.390;30.778;2023-05-07T10:09:12;3.05;;;1.20;;
46447;SDS011;32145;50.390;30.778;2023-05-07T10:12:11;2.67;;;1.48;;
46447;SDS011;32145;50.390;30.778;2023-05-07T10:15:09;3.20;;;1.50;;
46447;SDS011;32145;50.390;30.778;2023-05-07T10:18:04;4.38;;;1.40;;
46447;SDS011;32145;50.390;30.778;2023-05-07T10:21:02;2.85;;;1.33;;
46447;SDS011;32145;50.390;30.778;2023-05-07T10:24:03;3.47;;;1.58;;
46447;SDS011;32145;50.390;30.778;2023-05-07T10:26:59;2.20;;;1.23;;
46447;SDS011;32145;50.390;30.778;2023-05-07T10:29:58;2.40;;;1.20;;
46447;SDS011;32145;50.390;30.778;2023-05-07T10:33:06;3.10;;;1.20;;
46447;SDS011;32145;50.390;30.778;2023-05-07T10:36:04;3.03;;;1.48;;
46447;SDS011;32145;50.390;30.778;2023-05-07T10:39:00;3.63;;;1.50;;
46447;SDS011;32145;50.390;30.778;2023-05-07T10:41:54;2.60;;;1.40;;
46447;SDS011;32145;50.390;30.778;2023-05-07T10:44:48;4.07;;;1.15;;
46447;SDS011;32145;50.390;30.778;2023-05-07T10:54:19;4.65;;;1.23;;
46447;SDS011;32145;50.390;30.778;2023-05-07T10:57:35;2.53;;;1.20;;
46447;SDS011;32145;50.390;30.778;2023-05-07T11:00:41;2.35;;;1.20;;
46447;SDS011;32145;50.390;30.778;2023-05-07T11:04:05;3.35;;;1.02;;
46447;SDS011;32145;50.390;30.778;2023-05-07T11:13:44;2.03;;;1.13;;
46447;SDS011;32145;50.390;30.778;2023-05-07T11:16:41;3.05;;;1.27;;
46447;SDS011;32145;50.390;30.778;2023-05-07T11:19:51;3.45;;;1.35;;
46447;SDS011;32145;50.390;30.778;2023-05-07T11:22:45;3.63;;;1.10;;
46447;SDS011;32145;50.390;30.778;2023-05-07T11:25:40;4.90;;;1.23;;
46447;SDS011;32145;50.390;30.778;2023-05-07T11:28:36;2.33;;;1.13;;
46447;SDS011;32145;50.390;30.778;2023-05-07T11:31:31;4.25;;;1.30;;
46447;SDS011;32145;50.390;30.778;2023-05-07T11:34:26;4.05;;;1.30;;
46447;SDS011;32145;50.390;30.778;2023-05-07T11:37:22;2.92;;;1.15;;
46447;SDS011;32145;50.390;30.778;2023-05-07T11:40:17;2.42;;;1.20;;
46447;SDS011;32145;50.390;30.778;2023-05-07T11:43:13;3.38;;;1.70;;
46447;SDS011;32145;50.390;30.778;2023-05-07T11:46:10;2.60;;;1.42;;
46447;SDS011;32145;50.390;30.778;2023-05-07T11:49:05;4.15;;;1.40;;
46447;SDS011;32145;50.390;30.778;2023-05-07T11:51:59;5.20;;;1.38;;
46447;SDS011;32145;50.390;30.778;2023-05-07T11:54:56;4.85;;;1.30;;
46447;SDS011;32145;50.390;30.778;2023-05-07T11:57:51;2.63;;;1.13;;
46447;SDS011;32145;50.390;30.778;2023-05-07T12:00:47;2.28;;;1.27;;
46447;SDS011;32145;50.390;30.778;2023-05-07T12:03:42;2.17;;;1.20;;
46447;SDS011;32145;50.390;30.778;2023-05-07T12:06:37;1.98;;;1.13;;
46447;SDS011;32145;50.390;30.778;2023-05-07T12:09:33;2.17;;;1.17;;
46447;SDS011;32145;50.390;30.778;2023-05-07T12:12:28;3.20;;;1.48;;
46447;SDS011;32145;50.390;30.778;2023-05-07T12:15:23;2.70;;;1.67;;
46447;SDS011;32145;50.390;30.778;2023-05-07T12:18:17;2.38;;;1.17;;
46447;SDS011;32145;50.390;30.778;2023-05-07T12:21:12;2.72;;;1.30;;
46447;SDS011;32145;50.390;30.778;2023-05-07T12:24:07;2.65;;;1.50;;
46447;SDS011;32145;50.390;30.778;2023-05-07T12:27:02;2.95;;;1.50;;
46447;SDS011;32145;50.390;30.778;2023-05-07T12:29:58;3.85;;;1.65;;
46447;SDS011;32145;50.390;30.778;2023-05-07T12:32:52;6.82;;;1.90;;
46447;SDS011;32145;50.390;30.778;2023-05-07T12:35:46;4.25;;;2.88;;
46447;SDS011;32145;50.390;30.778;2023-05-07T12:38:41;4.35;;;1.75;;
46447;SDS011;32145;50.390;30.778;2023-05-07T12:41:36;4.80;;;1.52;;
46447;SDS011;32145;50.390;30.778;2023-05-07T12:47:43;3.17;;;1.33;;
46447;SDS011;32145;50.390;30.778;2023-05-07T12:50:37;4.90;;;1.55;;
46447;SDS011;32145;50.390;30.778;2023-05-07T12:53:31;2.80;;;1.40;;
46447;SDS011;32145;50.390;30.778;2023-05-07T12:56:26;2.50;;;1.30;;
46447;SDS011;32145;50.390;30.778;2023-05-07T12:59:28;3.78;;;1.45;;
46447;SDS011;32145;50.390;30.778;2023-05-07T13:02:31;4.22;;;1.30;;
46447;SDS011;32145;50.390;30.778;2023-05-07T13:05:27;2.92;;;1.38;;
46447;SDS011;32145;50.390;30.778;2023-05-07T13:08:25;2.63;;;1.40;;
46447;SDS011;32145;50.390;30.778;2023-05-07T13:11:20;7.00;;;1.88;;
46447;SDS011;32145;50.390;30.778;2023-05-07T13:14:15;2.75;;;1.30;;
46447;SDS011;32145;50.390;30.778;2023-05-07T13:17:09;3.03;;;1.35;;
46447;SDS011;32145;50.390;30.778;2023-05-07T13:20:04;3.08;;;1.50;;
46447;SDS011;32145;50.390;30.778;2023-05-07T13:23:00;2.28;;;1.30;;
46447;SDS011;32145;50.390;30.778;2023-05-07T13:25:54;5.65;;;1.50;;
46447;SDS011;32145;50.390;30.778;2023-05-07T13:28:49;2.20;;;1.23;;
46447;SDS011;32145;50.390;30.778;2023-05-07T13:31:45;3.72;;;1.33;;
46447;SDS011;32145;50.390;30.778;2023-05-07T13:34:42;3.33;;;1.60;;
46447;SDS011;32145;50.390;30.778;2023-05-07T13:37:38;2.97;;;1.50;;
46447;SDS011;32145;50.390;30.778;2023-05-07T13:40:36;2.22;;;1.30;;
46447;SDS011;32145;50.390;30.778;2023-05-07T13:43:32;3.47;;;1.50;;
46447;SDS011;32145;50.390;30.778;2023-05-07T13:46:26;3.83;;;1.48;;
46447;SDS011;32145;50.390;30.778;2023-05-07T13:49:20;5.10;;;1.58;;
46447;SDS011;32145;50.390;30.778;2023-05-07T13:52:15;2.53;;;1.55;;
46447;SDS011;32145;50.390;30.778;2023-05-07T13:55:09;3.40;;;1.48;;
46447;SDS011;32145;50.390;30.778;2023-05-07T13:58:07;3.47;;;1.38;;
46447;SDS011;32145;50.390;30.778;2023-05-07T14:01:03;4.75;;;1.50;;
46447;SDS011;32145;50.390;30.778;2023-05-07T14:04:00;4.10;;;1.75;;
46447;SDS011;32145;50.390;30.778;2023-05-07T14:06:56;5.10;;;1.33;;
46447;SDS011;32145;50.390;30.778;2023-05-07T14:09:53;2.67;;;1.50;;
46447;SDS011;32145;50.390;30.778;2023-05-07T14:12:47;2.88;;;1.42;;
46447;SDS011;32145;50.390;30.778;2023-05-07T14:15:43;3.28;;;1.10;;
46447;SDS011;32145;50.390;30.778;2023-05-07T14:18:37;2.85;;;1.30;;
46447;SDS011;32145;50.390;30.778;2023-05-07T14:21:32;5.60;;;1.30;;
46447;SDS011;32145;50.390;30.778;2023-05-07T14:24:26;1.77;;;1.23;;
46447;SDS011;32145;50.390;30.778;2023-05-07T14:27:20;3.78;;;1.60;;
46447;SDS011;32145;50.390;30.778;2023-05-07T14:30:14;5.68;;;1.42;;
46447;SDS011;32145;50.390;30.778;2023-05-07T14:33:10;3.88;;;1.38;;
46447;SDS011;32145;50.390;30.778;2023-05-07T14:36:05;2.60;;;1.35;;
46447;SDS011;32145;50.390;30.778;2023-05-07T14:38:59;2.90;;;1.35;;
46447;SDS011;32145;50.390;30.778;2023-05-07T14:41:53;3.72;;;1.40;;
46447;SDS011;32145;50.390;30.778;2023-05-07T14:44:48;5.10;;;1.60;;
46447;SDS011;32145;50.390;30.778;2023-05-07T14:47:42;4.07;;;1.52;;
46447;SDS011;32145;50.390;30.778;2023-05-07T14:50:38;3.15;;;1.50;;
46447;SDS011;32145;50.390;30.778;2023-05-07T14:53:32;4.70;;;1.90;;
46447;SDS011;32145;50.390;30.778;2023-05-07T14:56:27;4.22;;;1.80;;
46447;SDS011;32145;50.390;30.778;2023-05-07T14:59:21;3.35;;;1.70;;
46447;SDS011;32145;50.390;30.778;2023-05-07T15:02:15;3.38;;;1.52;;
46447;SDS011;32145;50.390;30.778;2023-05-07T15:05:09;3.65;;;1.40;;
46447;SDS011;32145;50.390;30.778;2023-05-07T15:08:05;3.10;;;1.25;;
46447;SDS011;32145;50.390;30.778;2023-05-07T15:10:59;3.17;;;1.30;;
46447;SDS011;32145;50.390;30.778;2023-05-07T15:13:53;3.97;;;1.25;;
46447;SDS011;32145;50.390;30.778;2023-05-07T15:16:48;2.35;;;1.30;;
46447;SDS011;32145;50.390;30.778;2023-05-07T15:19:42;2.85;;;1.40;;
46447;SDS011;32145;50.390;30.778;2023-05-07T15:22:36;4.30;;;1.80;;
46447;SDS011;32145;50.390;30.778;2023-05-07T15:25:32;4.28;;;1.35;;
46447;SDS011;32145;50.390;30.778;2023-05-07T15:28:29;4.20;;;1.45;;
46447;SDS011;32145;50.390;30.778;2023-05-07T15:31:25;4.40;;;1.67;;
46447;SDS011;32145;50.390;30.778;2023-05-07T15:34:21;5.57;;;1.80;;
46447;SDS011;32145;50.390;30.778;2023-05-07T15:37:18;3.08;;;1.67;;
46447;SDS011;32145;50.390;30.778;2023-05-07T15:40:14;5.32;;;1.65;;
46447;SDS011;32145;50.390;30.778;2023-05-07T15:43:11;6.20;;;1.70;;
46447;SDS011;32145;50.390;30.778;2023-05-07T15:46:08;8.65;;;4.30;;
46447;SDS011;32145;50.390;30.778;2023-05-07T15:49:04;9.13;;;4.25;;
46447;SDS011;32145;50.390;30.778;2023-05-07T15:52:00;6.95;;;2.70;;
46447;SDS011;32145;50.390;30.778;2023-05-07T15:54:57;5.35;;;2.05;;
46447;SDS011;32145;50.390;30.778;2023-05-07T15:57:54;7.88;;;2.30;;
46447;SDS011;32145;50.390;30.778;2023-05-07T16:00:52;8.68;;;2.10;;
46447;SDS011;32145;50.390;30.778;2023-05-07T16:03:48;9.75;;;2.70;;
46447;SDS011;32145;50.390;30.778;2023-05-07T16:06:44;5.95;;;2.58;;
46447;SDS011;32145;50.390;30.778;2023-05-07T16:09:40;6.40;;;2.10;;
46447;SDS011;32145;50.390;30.778;2023-05-07T16:12:37;4.22;;;2.00;;
46447;SDS011;32145;50.390;30.778;2023-05-07T16:15:33;3.75;;;1.80;;
46447;SDS011;32145;50.390;30.778;2023-05-07T16:18:31;9.02;;;3.22;;
46447;SDS011;32145;50.390;30.778;2023-05-07T16:21:27;19.55;;;6.88;;
46447;SDS011;32145;50.390;30.778;2023-05-07T16:24:24;26.20;;;12.52;;
46447;SDS011;32145;50.390;30.778;2023-05-07T16:27:18;12.00;;;5.80;;
46447;SDS011;32145;50.390;30.778;2023-05-07T16:30:12;30.85;;;15.80;;
46447;SDS011;32145;50.390;30.778;2023-05-07T16:33:08;30.30;;;15.63;;
46447;SDS011;32145;50.390;30.778;2023-05-07T16:36:06;11.23;;;5.32;;
46447;SDS011;32145;50.390;30.778;2023-05-07T16:39:01;5.85;;;2.80;;
46447;SDS011;32145;50.390;30.778;2023-05-07T16:41:55;8.77;;;4.40;;
46447;SDS011;32145;50.390;30.778;2023-05-07T16:44:50;10.60;;;4.32;;
46447;SDS011;32145;50.390;30.778;2023-05-07T16:47:44;8.02;;;4.05;;
46447;SDS011;32145;50.390;30.778;2023-05-07T16:50:38;7.82;;;4.90;;
46447;SDS011;32145;50.390;30.778;2023-05-07T16:53:34;14.00;;;5.97;;
46447;SDS011;32145;50.390;30.778;2023-05-07T16:56:28;9.38;;;4.55;;
46447;SDS011;32145;50.390;30.778;2023-05-07T16:59:23;8.77;;;3.33;;
46447;SDS011;32145;50.390;30.778;2023-05-07T17:02:19;7.25;;;2.95;;
46447;SDS011;32145;50.390;30.778;2023-05-07T17:05:15;7.90;;;3.47;;
46447;SDS011;32145;50.390;30.778;2023-05-07T17:08:09;7.68;;;3.55;;
46447;SDS011;32145;50.390;30.778;2023-05-07T17:11:05;6.88;;;3.55;;
46447;SDS011;32145;50.390;30.778;2023-05-07T17:13:59;7.22;;;4.32;;
46447;SDS011;32145;50.390;30.778;2023-05-07T17:16:54;10.23;;;4.13;;
46447;SDS011;32145;50.390;30.778;2023-05-07T17:19:48;11.90;;;5.40;;
46447;SDS011;32145;50.390;30.778;2023-05-07T17:22:42;9.13;;;4.05;;
46447;SDS011;32145;50.390;30.778;2023-05-07T17:25:39;9.15;;;4.50;;
46447;SDS011;32145;50.390;30.778;2023-05-07T17:28:36;8.85;;;4.72;;
46447;SDS011;32145;50.390;30.778;2023-05-07T17:31:31;5.60;;;3.25;;
46447;SDS011;32145;50.390;30.778;2023-05-07T17:34:25;7.05;;;3.03;;
46447;SDS011;32145;50.390;30.778;2023-05-07T17:37:19;8.68;;;4.32;;
46447;SDS011;32145;50.390;30.778;2023-05-07T17:40:14;9.60;;;4.07;;